BBC Polonia — V2EZ6 — position and weather

sailwx.info

Track history (hours):
 
Tides and Currents Weather Stations Pressure Air Temp Water Temp Dewpoint Dewpoint Depression Visibility Wind Speed Wind Dir Waves Ship Positions

BBC Polonia

Last reported at 2016-Apr-19 10:33 UTC. Time now 2016-Apr-28 23:49 UTC.
Position N 37°32' W 029°26'.
Warning: this ship's position is 9 days out of date.

Length 123 m; draft 5.6 m.

Type: Cargo ship. MMSI: 305614000.

Date/timePositionNaut miles runAvg speedWind from/ knotsBaromVisibWave heightAir tempDewpointWater temp
2016-Apr-19 10:33N 37°32' W 029°26'1212.3
2016-Apr-19 09:33N 37°36' W 029°11'1212.5
2016-Apr-19 08:34N 37°39' W 028°56'1312.8
2016-Apr-19 07:34N 37°44' W 028°41'1312.9
2016-Apr-19 06:33N 37°49' W 028°27'1313.1
2016-Apr-19 05:33N 37°56' W 028°12'1313.2
2016-Apr-19 04:34N 38°02' W 027°57'1313.3
2016-Apr-19 03:33N 38°08' W 027°42'1313.5
2016-Apr-19 02:33N 38°15' W 027°27'1313.2
2016-Apr-19 01:33N 38°21' W 027°12'1313.4
2016-Apr-19 00:34N 38°27' W 026°57'1313.1
2016-Apr-18 23:33N 38°33' W 026°42'1313.1
2016-Apr-18 22:34N 38°39' W 026°28'1413.4
2016-Apr-18 21:33N 38°46' W 026°12'1413.5
2016-Apr-18 20:33N 38°52' W 025°57'  
2016-Apr-15 01:33N 49°46' W 003°36'1111.1
2016-Apr-15 00:34N 49°52' W 003°21'1111.3
2016-Apr-14 23:33N 49°57' W 003°05'1212.0
2016-Apr-14 22:33N 50°02' W 002°48'8514.1
2016-Apr-14 16:31N 50°25' W 000°40'1212.2
2016-Apr-14 15:33N 50°28' W 000°22'1211.7
2016-Apr-14 14:33N 50°31' W 000°05'1211.5
2016-Apr-14 13:33N 50°34' E 000°13'1311.8
2016-Apr-14 12:28N 50°38' E 000°32'4013.6
2016-Apr-14 09:33N 51°01' E 001°22'1312.8
2016-Apr-14 08:33N 51°10' E 001°38'1111.4
2016-Apr-14 07:33N 51°18' E 001°49'1111.0
2016-Apr-14 06:33N 51°27' E 001°59'1111.1
2016-Apr-14 05:33N 51°36' E 002°11'1211.5
2016-Apr-14 04:33N 51°45' E 002°23'1212.4
2016-Apr-14 03:33N 51°54' E 002°36'4613.6
2016-Apr-14 00:13N 52°30' E 003°22'1213.2
2016-Apr-13 23:19N 52°39' E 003°33'1312.4
2016-Apr-13 22:18N 52°49' E 003°47'1311.8
2016-Apr-13 21:13N 52°59' E 004°01'811.6
2016-Apr-13 20:33N 53°04' E 004°11'4212.0
2016-Apr-13 17:05N 53°33' E 005°00'814.1
2016-Apr-13 16:33N 53°36' E 005°12'1413.7
2016-Apr-13 15:33N 53°40' E 005°34'1313.0
2016-Apr-13 14:33N 53°44' E 005°55'1312.2
2016-Apr-13 13:32N 53°48' E 006°15'1111.4
2016-Apr-13 12:33N 53°52' E 006°33'1111.4
2016-Apr-13 11:33N 53°54' E 006°52'1111.3
2016-Apr-13 10:33N 53°57' E 007°10'1212.5
2016-Apr-13 09:33N 54°00' E 007°31'1313.3
2016-Apr-13 08:33N 54°02' E 007°53'1413.7
2016-Apr-13 07:33N 54°00' E 008°17'1514.6
2016-Apr-13 06:33N 53°55' E 008°40'1111.1
2016-Apr-13 05:34N 53°51' E 008°57'10 9.9
2016-Apr-13 04:34N 53°53' E 009°14'10 9.5
2016-Apr-13 03:34N 53°46' E 009°24'10 9.7
2016-Apr-13 02:33N 53°37' E 009°33'1111.1
2016-Apr-13 01:33N 53°33' E 009°50'0 0.0
2016-Apr-13 00:33N 53°33' E 009°50'0 0.0
2016-Apr-12 23:33N 53°33' E 009°50'0 0.0
2016-Apr-12 22:33N 53°33' E 009°50'0 0.0
2016-Apr-12 21:33N 53°33' E 009°50'0 0.0
2016-Apr-12 20:33N 53°33' E 009°50'0 0.0
2016-Apr-12 19:33N 53°33' E 009°50'0 0.0
2016-Apr-12 18:33N 53°33' E 009°50'0 0.0
2016-Apr-12 17:33N 53°33' E 009°50'0 0.0
2016-Apr-12 16:33N 53°33' E 009°50'0 0.0
2016-Apr-12 15:30N 53°33' E 009°50'0 0.0
2016-Apr-12 14:33N 53°33' E 009°50'0 0.0
2016-Apr-12 13:33N 53°33' E 009°50'0 0.0
2016-Apr-12 12:33N 53°33' E 009°50'0 0.0
2016-Apr-12 11:33N 53°33' E 009°50'0 0.0
2016-Apr-12 10:33N 53°33' E 009°50'0 0.0
2016-Apr-12 09:33N 53°33' E 009°50'0 0.0
2016-Apr-12 08:33N 53°33' E 009°50'0 0.0
2016-Apr-12 07:33N 53°33' E 009°50'2 2.2
2016-Apr-12 06:33N 53°33' E 009°53'3 3.2
2016-Apr-12 05:31N 53°32' E 009°59'0 0.0
2016-Apr-12 04:31N 53°32' E 009°59'0 0.0
2016-Apr-12 03:31N 53°32' E 009°59'0 0.0
2016-Apr-12 02:31N 53°32' E 009°59'0 0.0
2016-Apr-12 01:31N 53°32' E 009°59'0 0.0
2016-Apr-12 00:31N 53°32' E 009°59'0 0.0
2016-Apr-11 23:31N 53°32' E 009°59'0 0.0
2016-Apr-11 22:31N 53°32' E 009°59'0 0.0
2016-Apr-11 21:31N 53°32' E 009°59'0 0.0
2016-Apr-11 20:31N 53°32' E 009°59'0 0.0
2016-Apr-11 19:31N 53°32' E 009°59'0 0.0
2016-Apr-11 18:31N 53°32' E 009°59'0 0.0
2016-Apr-11 17:31N 53°32' E 009°59'0 0.3
2016-Apr-11 16:33N 53°32' E 009°59'9 9.4
2016-Apr-11 15:33N 53°34' E 009°43'1110.9
2016-Apr-11 14:34N 53°41' E 009°30'1313.1
2016-Apr-11 13:34N 53°52' E 009°17'1211.9
2016-Apr-11 12:33N 53°51' E 008°57'1212.2
2016-Apr-11 11:33N 53°57' E 008°39'1414.2
2016-Apr-11 10:33N 53°60' E 008°15'10 9.8
2016-Apr-11 09:33N 54°01' E 007°59'1211.6
2016-Apr-11 08:33N 54°07' E 007°41'1111.1
2016-Apr-11 07:33N 54°15' E 007°29'1212.0
2016-Apr-11 06:33N 54°27' E 007°22'1211.6
2016-Apr-11 05:33N 54°38' E 007°16'1211.4
2016-Apr-11 04:30N 54°49' E 007°10'1111.5
2016-Apr-11 03:33N 54°60' E 007°04'1211.8
2016-Apr-11 02:33N 55°11' E 007°03'1211.9
2016-Apr-11 01:33N 55°23' E 007°03'1212.2
2016-Apr-11 00:33N 55°35' E 007°03'1212.5
2016-Apr-10 23:33N 55°48' E 007°03'15711.8
2016-Apr-10 10:12N 57°49' E 010°07'812.7
2016-Apr-10 09:33N 57°48' E 010°22'1212.3
2016-Apr-10 08:33N 57°46' E 010°45'6 6.4
2016-Apr-10 07:33N 57°41' E 010°36'0 0.0
2016-Apr-10 06:33N 57°41' E 010°36'3 3.5
2016-Apr-10 05:33N 57°43' E 010°41'9 8.6
2016-Apr-10 04:34N 57°52' E 010°46'1110.8
2016-Apr-10 03:34N 58°02' E 010°44'1211.7
2016-Apr-10 02:34N 58°14' E 010°45'1111.4
2016-Apr-10 01:34N 58°25' E 010°45'1111.2
2016-Apr-10 00:33N 58°37' E 010°45'1111.2
2016-Apr-09 23:34N 58°48' E 010°45'1111.2
2016-Apr-09 22:34N 58°59' E 010°45'9 9.0
2016-Apr-09 21:33N 58°59' E 011°02'1110.5
2016-Apr-09 20:33N 59°06' E 011°17'  
Track history (hours):
 
Tides and Currents Weather Stations Pressure Air Temp Water Temp Dewpoint Dewpoint Depression Visibility Wind Speed Wind Dir Waves Ship Positions

BBC Polonia

Last reported at 2016-Apr-19 10:33 UTC. Time now 2016-Apr-28 23:49 UTC.
Position N 37°32' W 029°26'.
Warning: this ship's position is 9 days out of date.

Length 123 m; draft 5.6 m.

Type: Cargo ship. MMSI: 305614000.

Date/timePositionNaut miles runAvg speedWind from/ knotsBaromVisibWave heightAir tempDewpointWater temp
2016-Apr-19 10:33N 37°32' W 029°26'1212.3
2016-Apr-19 09:33N 37°36' W 029°11'1212.5
2016-Apr-19 08:34N 37°39' W 028°56'1312.8
2016-Apr-19 07:34N 37°44' W 028°41'1312.9
2016-Apr-19 06:33N 37°49' W 028°27'1313.1
2016-Apr-19 05:33N 37°56' W 028°12'1313.2
2016-Apr-19 04:34N 38°02' W 027°57'1313.3
2016-Apr-19 03:33N 38°08' W 027°42'1313.5
2016-Apr-19 02:33N 38°15' W 027°27'1313.2
2016-Apr-19 01:33N 38°21' W 027°12'1313.4
2016-Apr-19 00:34N 38°27' W 026°57'1313.1
2016-Apr-18 23:33N 38°33' W 026°42'1313.1
2016-Apr-18 22:34N 38°39' W 026°28'1413.4
2016-Apr-18 21:33N 38°46' W 026°12'1413.5
2016-Apr-18 20:33N 38°52' W 025°57'  
2016-Apr-15 01:33N 49°46' W 003°36'1111.1
2016-Apr-15 00:34N 49°52' W 003°21'1111.3
2016-Apr-14 23:33N 49°57' W 003°05'1212.0
2016-Apr-14 22:33N 50°02' W 002°48'8514.1
2016-Apr-14 16:31N 50°25' W 000°40'1212.2
2016-Apr-14 15:33N 50°28' W 000°22'1211.7
2016-Apr-14 14:33N 50°31' W 000°05'1211.5
2016-Apr-14 13:33N 50°34' E 000°13'1311.8
2016-Apr-14 12:28N 50°38' E 000°32'4013.6
2016-Apr-14 09:33N 51°01' E 001°22'1312.8
2016-Apr-14 08:33N 51°10' E 001°38'1111.4
2016-Apr-14 07:33N 51°18' E 001°49'1111.0
2016-Apr-14 06:33N 51°27' E 001°59'1111.1
2016-Apr-14 05:33N 51°36' E 002°11'1211.5
2016-Apr-14 04:33N 51°45' E 002°23'1212.4
2016-Apr-14 03:33N 51°54' E 002°36'4613.6
2016-Apr-14 00:13N 52°30' E 003°22'1213.2
2016-Apr-13 23:19N 52°39' E 003°33'1312.4
2016-Apr-13 22:18N 52°49' E 003°47'1311.8
2016-Apr-13 21:13N 52°59' E 004°01'811.6
2016-Apr-13 20:33N 53°04' E 004°11'4212.0
2016-Apr-13 17:05N 53°33' E 005°00'814.1
2016-Apr-13 16:33N 53°36' E 005°12'1413.7
2016-Apr-13 15:33N 53°40' E 005°34'1313.0
2016-Apr-13 14:33N 53°44' E 005°55'1312.2
2016-Apr-13 13:32N 53°48' E 006°15'1111.4
2016-Apr-13 12:33N 53°52' E 006°33'1111.4
2016-Apr-13 11:33N 53°54' E 006°52'1111.3
2016-Apr-13 10:33N 53°57' E 007°10'1212.5
2016-Apr-13 09:33N 54°00' E 007°31'1313.3
2016-Apr-13 08:33N 54°02' E 007°53'1413.7
2016-Apr-13 07:33N 54°00' E 008°17'1514.6
2016-Apr-13 06:33N 53°55' E 008°40'1111.1
2016-Apr-13 05:34N 53°51' E 008°57'10 9.9
2016-Apr-13 04:34N 53°53' E 009°14'10 9.5
2016-Apr-13 03:34N 53°46' E 009°24'10 9.7
2016-Apr-13 02:33N 53°37' E 009°33'1111.1
2016-Apr-13 01:33N 53°33' E 009°50'0 0.0
2016-Apr-13 00:33N 53°33' E 009°50'0 0.0
2016-Apr-12 23:33N 53°33' E 009°50'0 0.0
2016-Apr-12 22:33N 53°33' E 009°50'0 0.0
2016-Apr-12 21:33N 53°33' E 009°50'0 0.0
2016-Apr-12 20:33N 53°33' E 009°50'0 0.0
2016-Apr-12 19:33N 53°33' E 009°50'0 0.0
2016-Apr-12 18:33N 53°33' E 009°50'0 0.0
2016-Apr-12 17:33N 53°33' E 009°50'0 0.0
2016-Apr-12 16:33N 53°33' E 009°50'0 0.0
2016-Apr-12 15:30N 53°33' E 009°50'0 0.0
2016-Apr-12 14:33N 53°33' E 009°50'0 0.0
2016-Apr-12 13:33N 53°33' E 009°50'0 0.0
2016-Apr-12 12:33N 53°33' E 009°50'0 0.0
2016-Apr-12 11:33N 53°33' E 009°50'0 0.0
2016-Apr-12 10:33N 53°33' E 009°50'0 0.0
2016-Apr-12 09:33N 53°33' E 009°50'0 0.0
2016-Apr-12 08:33N 53°33' E 009°50'0 0.0
2016-Apr-12 07:33N 53°33' E 009°50'2 2.2
2016-Apr-12 06:33N 53°33' E 009°53'3 3.2
2016-Apr-12 05:31N 53°32' E 009°59'0 0.0
2016-Apr-12 04:31N 53°32' E 009°59'0 0.0
2016-Apr-12 03:31N 53°32' E 009°59'0 0.0
2016-Apr-12 02:31N 53°32' E 009°59'0 0.0
2016-Apr-12 01:31N 53°32' E 009°59'0 0.0
2016-Apr-12 00:31N 53°32' E 009°59'0 0.0
2016-Apr-11 23:31N 53°32' E 009°59'0 0.0
2016-Apr-11 22:31N 53°32' E 009°59'0 0.0
2016-Apr-11 21:31N 53°32' E 009°59'0 0.0
2016-Apr-11 20:31N 53°32' E 009°59'0 0.0
2016-Apr-11 19:31N 53°32' E 009°59'0 0.0
2016-Apr-11 18:31N 53°32' E 009°59'0 0.0
2016-Apr-11 17:31N 53°32' E 009°59'0 0.3
2016-Apr-11 16:33N 53°32' E 009°59'9 9.4
2016-Apr-11 15:33N 53°34' E 009°43'1110.9
2016-Apr-11 14:34N 53°41' E 009°30'1313.1
2016-Apr-11 13:34N 53°52' E 009°17'1211.9
2016-Apr-11 12:33N 53°51' E 008°57'1212.2
2016-Apr-11 11:33N 53°57' E 008°39'1414.2
2016-Apr-11 10:33N 53°60' E 008°15'10 9.8
2016-Apr-11 09:33N 54°01' E 007°59'1211.6
2016-Apr-11 08:33N 54°07' E 007°41'1111.1
2016-Apr-11 07:33N 54°15' E 007°29'1212.0
2016-Apr-11 06:33N 54°27' E 007°22'1211.6
2016-Apr-11 05:33N 54°38' E 007°16'1211.4
2016-Apr-11 04:30N 54°49' E 007°10'1111.5
2016-Apr-11 03:33N 54°60' E 007°04'1211.8
2016-Apr-11 02:33N 55°11' E 007°03'1211.9
2016-Apr-11 01:33N 55°23' E 007°03'1212.2
2016-Apr-11 00:33N 55°35' E 007°03'1212.5
2016-Apr-10 23:33N 55°48' E 007°03'15711.8
2016-Apr-10 10:12N 57°49' E 010°07'812.7
2016-Apr-10 09:33N 57°48' E 010°22'1212.3
2016-Apr-10 08:33N 57°46' E 010°45'6 6.4
2016-Apr-10 07:33N 57°41' E 010°36'0 0.0
2016-Apr-10 06:33N 57°41' E 010°36'3 3.5
2016-Apr-10 05:33N 57°43' E 010°41'9 8.6
2016-Apr-10 04:34N 57°52' E 010°46'1110.8
2016-Apr-10 03:34N 58°02' E 010°44'1211.7
2016-Apr-10 02:34N 58°14' E 010°45'1111.4
2016-Apr-10 01:34N 58°25' E 010°45'1111.2
2016-Apr-10 00:33N 58°37' E 010°45'1111.2
2016-Apr-09 23:34N 58°48' E 010°45'1111.2
2016-Apr-09 22:34N 58°59' E 010°45'9 9.0
2016-Apr-09 21:33N 58°59' E 011°02'1110.5
2016-Apr-09 20:33N 59°06' E 011°17'  

Dump ship's entire track history